Aérodrome :
LOGIN :

S'inscrire | Disclaimer

   EN    FR    IT 

 










Légende :    VFR   VFR Marginal   IFR   IFR Intensif   IFR Très Intensif
Visi : 
Plafond : 
>= 8 km
>= 3000ft
5 à 8 km
1000 à 3000 ft
1500m à 5 km
500 à 1000 ft
800 à 1500m
200 à 500 ft
< 800m
< 200 ft
Symboles :   Orages  Brouillard  Fortes neiges  Fortes précipitations  Vent > 20 kt
SIGMETs :   Divers  Orages  Givrage  Turbulence  Onde Orograph.  Cendres Volcan.






- Altitude de l'aérodrome : 142 ft
- Code IATA : FLR


LIRQ - Firenze Amerigo Vespucci

DERNIER METAR :
  • 282150Z 08005KT CAVOK 15/09 Q1020

METARs EXPIRÉS :
  • 282120Z 09004KT CAVOK 16/09 Q1020
  • 282050Z VRB02KT CAVOK 17/09 Q1020
  • 282020Z 20004KT CAVOK 20/08 Q1020
  • 281950Z 24003KT 200V270 CAVOK 20/08 Q1020
  • 281920Z 26004KT 220V280 CAVOK 20/08 Q1020

TAF TAF LIRQ
Valide du 28 à 18h jusqu'au 29 à 18h UTC


281700Z 2818/2918 24007KT 9999 SCT025 SCT050
TEMPO 2903/2909 4000 TSRA SCT030CB
BECMG 2904/2906 04010KT



MET'MAP, la Météo Aéronautique d'un coup d'oeil ! - Copyright ORBIFLY Décembre 2007 - Disclaimer

ORBIFLY MET'MAP TEAM :

Programmation & Développement : Alexandra Zaïnal
Sur une idée originale de : Baudouin d'Aumeries
Assistance à la programmation : Marc-Olivier Méhu
Soutien technique & logistique : Manuel Goepfert

Contact : metmap@orbifly.com




SOURCES & CREDITS :

   NOAA